createdAt,value
2018-05-15T00:01:22.129Z,52.82
2018-05-15T00:03:48.450Z,53.19
2018-05-15T00:06:14.864Z,52.94
2018-05-15T00:08:41.209Z,53.31
2018-05-15T00:11:07.610Z,53.33
2018-05-15T00:13:33.925Z,53.75
2018-05-15T00:16:00.262Z,53.24
2018-05-15T00:18:26.572Z,53.57
2018-05-15T00:20:52.900Z,53.65
2018-05-15T00:23:19.276Z,53.84
2018-05-15T00:25:45.667Z,53.77
2018-05-15T00:28:11.993Z,53.90
2018-05-15T00:30:45.376Z,53.43
2018-05-15T00:33:11.863Z,53.39
2018-05-15T00:35:38.192Z,52.95
2018-05-15T00:38:04.541Z,53.22
2018-05-15T00:51:12.296Z,52.85
2018-05-15T00:53:38.707Z,52.80
2018-05-15T00:56:05.102Z,52.85
2018-05-15T00:58:31.501Z,52.67
2018-05-15T01:03:40.677Z,52.17
2018-05-15T01:06:07.674Z,52.06
2018-05-15T01:08:34.045Z,52.04
2018-05-15T01:11:00.369Z,52.18
2018-05-15T01:13:26.704Z,52.52
2018-05-15T01:15:53.049Z,52.65
2018-05-15T01:18:19.458Z,53.05
2018-05-15T01:20:45.783Z,52.92
2018-05-15T01:23:20.109Z,52.88
2018-05-15T01:25:46.476Z,52.88
2018-05-15T01:28:13.808Z,52.83
2018-05-15T01:30:40.137Z,52.71
2018-05-15T01:33:06.565Z,52.59
2018-05-15T01:35:33.128Z,52.53
2018-05-15T01:37:59.703Z,52.47
2018-05-15T01:40:26.192Z,52.43
2018-05-15T01:42:52.527Z,52.37
2018-05-15T01:45:18.886Z,52.46
2018-05-15T01:47:45.237Z,52.52
2018-05-15T01:50:11.697Z,52.53
2018-05-15T01:52:38.244Z,52.49
2018-05-15T01:55:04.638Z,52.59
2018-05-15T01:57:30.997Z,52.56
2018-05-15T01:59:57.357Z,52.55
2018-05-15T02:02:23.869Z,52.72
2018-05-15T02:04:50.299Z,52.60
2018-05-15T02:07:16.664Z,52.85
2018-05-15T02:09:43.095Z,52.69
2018-05-15T02:12:09.479Z,52.91
2018-05-15T02:14:36.056Z,52.94
2018-05-15T02:17:02.802Z,52.82
2018-05-15T02:19:29.199Z,52.73
2018-05-15T02:21:55.557Z,52.74
2018-05-15T02:24:21.930Z,52.76
2018-05-15T02:26:48.262Z,52.84
2018-05-15T02:29:14.609Z,52.80
2018-05-15T02:31:40.997Z,52.82
2018-05-15T02:34:07.625Z,52.80
2018-05-15T02:36:33.958Z,52.87
2018-05-15T02:39:00.365Z,52.90
2018-05-15T02:41:26.715Z,52.75
2018-05-15T02:43:53.069Z,52.82
2018-05-15T02:46:19.624Z,52.72
2018-05-15T02:48:46.046Z,52.82
2018-05-15T02:51:12.382Z,52.86
2018-05-15T02:53:38.769Z,52.82
2018-05-15T02:56:05.101Z,52.77
2018-05-15T02:58:31.689Z,52.81
2018-05-15T03:00:58.071Z,52.74
2018-05-15T03:03:24.606Z,52.69
2018-05-15T03:05:51.020Z,52.76
2018-05-15T03:10:50.012Z,52.91
2018-05-15T03:13:16.383Z,53.23
2018-05-15T03:15:43.157Z,53.09
2018-05-15T03:18:09.538Z,53.21
2018-05-15T03:20:36.203Z,52.95
2018-05-15T03:23:02.660Z,53.01
2018-05-15T03:25:29.012Z,52.85
2018-05-15T03:27:55.335Z,52.85
2018-05-15T03:30:22.080Z,52.64
2018-05-15T03:32:48.479Z,52.49
2018-05-15T03:35:14.806Z,52.35
2018-05-15T03:37:41.243Z,51.99
2018-05-15T03:40:07.827Z,51.93
2018-05-15T03:42:34.200Z,51.76
2018-05-15T03:45:00.531Z,51.61
2018-05-15T03:47:26.911Z,51.66
2018-05-15T03:49:53.288Z,51.40
2018-05-15T03:52:19.677Z,51.01
2018-05-15T03:54:46.089Z,50.88
2018-05-15T03:57:12.420Z,50.66
2018-05-15T03:59:38.972Z,51.17
2018-05-15T04:02:05.603Z,50.72
2018-05-15T04:04:31.968Z,50.42
2018-05-15T04:06:58.294Z,50.24
2018-05-15T04:09:24.713Z,50.17
2018-05-15T04:11:51.173Z,50.14
2018-05-15T04:14:17.778Z,50.12
2018-05-15T04:16:44.144Z,49.92
2018-05-15T04:19:10.534Z,49.69
2018-05-15T04:21:37.039Z,49.53
2018-05-15T04:24:03.445Z,49.52
2018-05-15T04:26:30.623Z,49.42
2018-05-15T04:28:57.132Z,49.54
2018-05-15T04:31:23.522Z,49.41
2018-05-15T04:33:49.868Z,49.30
2018-05-15T04:36:16.245Z,49.31
2018-05-15T04:38:42.739Z,49.15
2018-05-15T04:41:09.190Z,49.15
2018-05-15T04:43:35.659Z,49.21
2018-05-15T04:46:02.040Z,49.34
2018-05-15T04:48:28.500Z,49.27
2018-05-15T04:50:54.951Z,49.37
2018-05-15T04:53:21.318Z,49.34
2018-05-15T04:55:47.729Z,49.32
2018-05-15T04:58:14.524Z,49.40
2018-05-15T05:00:41.236Z,49.38
2018-05-15T05:03:08.027Z,49.35
2018-05-15T05:05:34.448Z,49.37
2018-05-15T05:08:00.781Z,49.38
2018-05-15T05:10:27.113Z,49.64
2018-05-15T05:12:53.616Z,49.31
2018-05-15T05:15:20.018Z,49.23
2018-05-15T05:17:47.711Z,49.13
2018-05-15T05:20:14.124Z,49.21
2018-05-15T05:22:40.597Z,49.15
2018-05-15T05:25:07.371Z,49.04
2018-05-15T05:27:33.784Z,48.83
2018-05-15T05:30:00.556Z,49.07
2018-05-15T05:32:27.050Z,49.02
2018-05-15T05:34:53.818Z,48.94
2018-05-15T05:37:20.206Z,49.02
2018-05-15T05:39:46.828Z,48.89
2018-05-15T05:42:13.319Z,48.86
2018-05-15T05:44:39.747Z,48.95
2018-05-15T05:47:06.294Z,48.76
2018-05-15T05:49:32.740Z,48.79
2018-05-15T05:51:59.727Z,48.77
2018-05-15T05:54:26.278Z,48.41
2018-05-15T05:56:52.780Z,48.47
2018-05-15T05:59:19.382Z,48.31
2018-05-15T06:01:45.829Z,48.41
2018-05-15T06:04:12.694Z,48.47
2018-05-15T06:06:39.304Z,48.26
2018-05-15T06:09:05.775Z,48.12
2018-05-15T06:11:33.436Z,48.31
2018-05-15T06:13:59.934Z,48.10
2018-05-15T06:16:26.388Z,48.35
2018-05-15T06:18:53.966Z,48.14
2018-05-15T06:21:20.624Z,48.25
2018-05-15T06:23:47.296Z,48.22
2018-05-15T06:26:13.954Z,47.96
2018-05-15T06:28:41.115Z,48.27
2018-05-15T06:31:08.545Z,48.16
2018-05-15T06:33:35.432Z,47.99
2018-05-15T06:36:02.178Z,48.08
2018-05-15T06:38:29.252Z,48.41
2018-05-15T06:40:56.581Z,47.98
2018-05-15T06:43:24.359Z,48.18
2018-05-15T06:45:51.145Z,48.18
2018-05-15T06:48:20.118Z,48.08
2018-05-15T06:53:26.212Z,47.95
2018-05-15T06:55:53.064Z,48.07
2018-05-15T06:58:20.932Z,48.05
2018-05-15T07:00:47.750Z,48.28
2018-05-15T07:03:14.550Z,48.30
2018-05-15T07:05:41.234Z,48.33
2018-05-15T07:08:08.106Z,48.13
2018-05-15T07:10:37.744Z,48.50
2018-05-15T07:13:04.964Z,48.05
2018-05-15T07:15:32.109Z,48.06
2018-05-15T07:17:58.799Z,48.32
2018-05-15T07:23:04.792Z,48.18
2018-05-15T07:25:31.855Z,48.20
2018-05-15T07:27:58.703Z,48.48
2018-05-15T07:30:35.567Z,48.80
2018-05-15T07:33:02.392Z,48.94
2018-05-15T07:35:29.061Z,48.82
2018-05-15T07:37:55.765Z,48.63
2018-05-15T07:40:22.676Z,48.62
2018-05-15T07:42:49.307Z,48.95
2018-05-15T07:45:16.040Z,48.78
2018-05-15T07:47:42.870Z,48.72
2018-05-15T07:50:11.812Z,48.81
2018-05-15T07:52:39.417Z,48.61
2018-05-15T07:55:06.261Z,48.39
2018-05-15T07:57:33.124Z,48.57
2018-05-15T08:00:00.005Z,48.90
2018-05-15T08:02:26.808Z,48.57
2018-05-15T08:04:55.913Z,48.58
2018-05-15T08:07:23.575Z,48.39
2018-05-15T08:09:50.471Z,48.69
2018-05-15T08:12:17.304Z,48.16
2018-05-15T08:14:44.150Z,48.47
2018-05-15T08:17:10.904Z,48.44
2018-05-15T08:19:38.528Z,48.66
2018-05-15T08:22:05.271Z,48.82
2018-05-15T08:24:31.885Z,48.22
2018-05-15T08:26:58.465Z,48.50
2018-05-15T08:29:25.439Z,48.69
2018-05-15T08:31:52.249Z,48.51
2018-05-15T08:34:18.946Z,48.91
2018-05-15T08:36:45.765Z,48.33
2018-05-15T08:39:12.422Z,48.40
2018-05-15T08:41:39.133Z,48.66
2018-05-15T08:44:05.925Z,48.54
2018-05-15T08:46:32.687Z,48.82
2018-05-15T08:48:59.537Z,48.82
2018-05-15T08:51:27.122Z,48.79
2018-05-15T08:53:56.089Z,49.12
2018-05-15T08:56:22.865Z,48.80
2018-05-15T08:58:49.463Z,48.81
2018-05-15T09:01:16.276Z,49.15
2018-05-15T09:03:43.997Z,49.11
2018-05-15T09:06:10.835Z,49.47
2018-05-15T09:08:37.742Z,49.01
2018-05-15T09:11:04.466Z,49.05
2018-05-15T09:13:31.086Z,49.11
2018-05-15T09:15:57.755Z,49.21
2018-05-15T09:18:24.916Z,49.31
2018-05-15T09:20:51.555Z,49.42
2018-05-15T09:23:18.056Z,49.12
2018-05-15T09:25:44.947Z,49.33
2018-05-15T09:28:13.444Z,49.14
2018-05-15T09:30:39.928Z,49.43
2018-05-15T09:33:06.402Z,49.11
2018-05-15T09:35:32.826Z,49.34
2018-05-15T09:37:59.469Z,49.09
2018-05-15T09:40:25.903Z,49.15
2018-05-15T09:42:52.519Z,49.20
2018-05-15T09:45:18.970Z,49.38
2018-05-15T09:47:45.718Z,49.56
2018-05-15T09:50:15.076Z,49.30
2018-05-15T09:52:41.577Z,48.73
2018-05-15T09:55:08.168Z,48.98
2018-05-15T09:57:35.109Z,49.13
2018-05-15T10:00:01.660Z,48.92
2018-05-15T10:02:28.283Z,49.29
2018-05-15T10:04:55.451Z,48.92
2018-05-15T10:07:22.157Z,48.72
2018-05-15T10:09:48.847Z,49.01
2018-05-15T10:12:15.250Z,49.26
2018-05-15T10:14:41.887Z,49.42
2018-05-15T10:17:08.328Z,49.20
2018-05-15T10:19:34.738Z,48.49
2018-05-15T10:22:01.184Z,48.66
2018-05-15T10:24:27.749Z,48.93
2018-05-15T10:26:54.225Z,49.17
2018-05-15T10:29:20.724Z,49.04
2018-05-15T10:31:47.238Z,48.88
2018-05-15T10:34:14.382Z,48.92
2018-05-15T10:36:40.925Z,48.63
2018-05-15T10:39:07.361Z,48.75
2018-05-15T10:41:33.816Z,48.60
2018-05-15T10:44:00.678Z,48.50
2018-05-15T10:46:27.311Z,48.05
2018-05-15T10:48:53.743Z,48.16
2018-05-15T10:51:20.204Z,47.92
2018-05-15T10:53:47.498Z,47.49
2018-05-15T10:56:14.293Z,47.44
2018-05-15T10:58:40.961Z,47.12
2018-05-15T11:01:07.366Z,47.05
2018-05-15T11:03:34.489Z,47.04
2018-05-15T11:06:01.255Z,46.54
2018-05-15T11:08:28.663Z,46.47
2018-05-15T11:10:55.363Z,46.52
2018-05-15T11:13:22.386Z,46.05
2018-05-15T11:15:51.139Z,46.10
2018-05-15T11:18:17.712Z,45.78
2018-05-15T11:20:44.210Z,45.64
2018-05-15T11:23:10.817Z,45.53
2018-05-15T11:25:37.353Z,44.80
2018-05-15T11:28:04.060Z,45.04
2018-05-15T11:30:30.632Z,44.99
2018-05-15T11:32:57.114Z,44.65
2018-05-15T11:35:23.579Z,44.43
2018-05-15T11:37:52.145Z,44.45
2018-05-15T11:40:18.588Z,44.20
2018-05-15T11:42:45.105Z,43.83
2018-05-15T11:45:11.825Z,43.58
2018-05-15T11:47:38.660Z,43.81
2018-05-15T11:50:05.801Z,43.30
2018-05-15T11:52:32.072Z,43.15
2018-05-15T11:54:57.903Z,43.23
2018-05-15T11:57:24.423Z,42.87
2018-05-15T11:59:51.221Z,42.84
2018-05-15T12:02:17.900Z,42.74
2018-05-15T12:04:44.681Z,42.41
2018-05-15T12:07:11.517Z,42.66
2018-05-15T12:09:39.248Z,42.61
2018-05-15T12:12:06.108Z,42.27
2018-05-15T12:14:32.618Z,42.42
2018-05-15T12:16:59.085Z,42.29
2018-05-15T12:19:25.594Z,42.44
2018-05-15T12:21:52.060Z,42.31
2018-05-15T12:24:18.884Z,42.06
2018-05-15T12:26:45.422Z,42.03
2018-05-15T12:29:11.959Z,41.91
2018-05-15T12:31:38.688Z,41.66
2018-05-15T12:34:05.088Z,41.41
2018-05-15T12:36:31.767Z,41.41
2018-05-15T12:38:58.423Z,41.17
2018-05-15T12:41:25.087Z,41.76
2018-05-15T12:43:51.492Z,41.42
2018-05-15T12:46:17.913Z,41.45
2018-05-15T12:48:44.494Z,41.23
2018-05-15T12:51:10.995Z,41.27
2018-05-15T12:53:38.252Z,41.36
2018-05-15T12:56:04.686Z,41.21
2018-05-15T12:58:31.540Z,41.13
2018-05-15T13:00:58.204Z,41.26
2018-05-15T13:03:24.681Z,41.20
2018-05-15T13:05:51.075Z,40.90
2018-05-15T13:08:17.476Z,40.97
2018-05-15T13:10:43.938Z,40.94
2018-05-15T13:13:10.621Z,40.75
2018-05-15T13:15:37.161Z,40.57
2018-05-15T13:18:03.658Z,40.80
2018-05-15T13:20:30.652Z,40.66
2018-05-15T13:22:57.275Z,40.89
2018-05-15T13:25:25.479Z,40.46
2018-05-15T13:27:51.868Z,40.51
2018-05-15T13:30:18.624Z,40.43
2018-05-15T13:32:45.132Z,40.26
2018-05-15T13:35:11.915Z,40.10
2018-05-15T13:37:39.072Z,40.13
2018-05-15T13:40:05.916Z,40.26
2018-05-15T13:42:32.831Z,40.35
2018-05-15T13:44:59.722Z,40.32
2018-05-15T13:47:26.212Z,40.39
2018-05-15T13:49:52.704Z,40.21
2018-05-15T13:52:19.920Z,40.02
2018-05-15T13:54:46.345Z,40.32
2018-05-15T13:57:12.695Z,40.29
2018-05-15T13:59:39.120Z,40.75
2018-05-15T14:02:05.628Z,40.30
2018-05-15T14:04:32.082Z,40.20
2018-05-15T14:06:58.705Z,40.26
2018-05-15T14:09:25.140Z,39.98
2018-05-15T14:11:51.627Z,40.17
2018-05-15T14:14:18.974Z,39.91
2018-05-15T14:16:45.472Z,39.96
2018-05-15T14:19:11.934Z,40.23
2018-05-15T14:21:38.378Z,40.01
2018-05-15T14:24:04.805Z,39.94
2018-05-15T14:26:31.269Z,40.01
2018-05-15T14:28:57.687Z,40.01
2018-05-15T14:31:24.248Z,40.17
2018-05-15T14:33:50.679Z,40.42
2018-05-15T14:36:17.157Z,40.26
2018-05-15T14:38:43.541Z,40.54
2018-05-15T14:41:09.962Z,40.68
2018-05-15T14:43:36.457Z,40.30
2018-05-15T14:46:03.119Z,40.26
2018-05-15T14:48:32.502Z,40.26
2018-05-15T14:50:58.929Z,40.32
2018-05-15T14:53:25.347Z,39.90
2018-05-15T14:55:51.832Z,40.12
2018-05-15T14:58:18.287Z,39.81
2018-05-15T15:00:44.692Z,39.89
2018-05-15T15:03:11.088Z,39.87
2018-05-15T15:05:37.579Z,40.07
2018-05-15T15:08:03.961Z,40.22
2018-05-15T15:10:30.332Z,40.59
2018-05-15T15:12:56.693Z,40.55
2018-05-15T15:15:23.183Z,40.62
2018-05-15T15:17:49.581Z,40.83
2018-05-15T15:20:16.649Z,41.01
2018-05-15T15:22:43.108Z,40.98
2018-05-15T15:25:09.515Z,41.03
2018-05-15T15:27:35.979Z,41.22
2018-05-15T15:30:02.400Z,41.33
2018-05-15T15:32:28.735Z,41.42
2018-05-15T15:34:55.071Z,41.56
2018-05-15T15:37:21.694Z,41.56
2018-05-15T15:39:48.070Z,41.76
2018-05-15T15:42:14.479Z,41.91
2018-05-15T15:44:40.898Z,41.99
2018-05-15T15:47:07.403Z,42.31
2018-05-15T15:49:33.834Z,42.32
2018-05-15T15:52:00.178Z,43.10
2018-05-15T15:54:26.543Z,43.03
2018-05-15T15:56:53.083Z,43.08
2018-05-15T15:59:19.424Z,42.92
2018-05-15T16:01:45.790Z,42.77
2018-05-15T16:04:12.184Z,42.93
2018-05-15T16:06:38.702Z,42.79
2018-05-15T16:09:05.080Z,42.65
2018-05-15T16:11:31.580Z,42.71
2018-05-15T16:13:57.936Z,42.79
2018-05-15T16:16:24.343Z,42.72
2018-05-15T16:18:50.785Z,42.81
2018-05-15T16:21:17.279Z,42.69
2018-05-15T16:23:43.643Z,42.96
2018-05-15T16:26:10.075Z,43.02
2018-05-15T16:28:36.730Z,43.08
2018-05-15T16:31:03.120Z,43.00
2018-05-15T16:33:29.568Z,43.49
2018-05-15T16:35:55.899Z,43.83
2018-05-15T16:38:22.381Z,44.18
2018-05-15T16:40:48.824Z,44.13
2018-05-15T16:43:15.216Z,44.19
2018-05-15T16:45:41.545Z,44.30
2018-05-15T16:48:07.995Z,44.48
2018-05-15T16:50:34.362Z,44.89
2018-05-15T16:53:00.725Z,44.88
2018-05-15T16:55:27.057Z,44.68
2018-05-15T16:57:53.423Z,44.48
2018-05-15T17:00:19.850Z,44.39
2018-05-15T17:02:46.204Z,44.38
2018-05-15T17:05:12.525Z,44.29
2018-05-15T17:07:38.880Z,44.46
2018-05-15T17:10:05.211Z,44.35
2018-05-15T17:12:31.685Z,44.57
2018-05-15T17:14:58.103Z,44.70
2018-05-15T17:17:24.475Z,44.52
2018-05-15T17:19:50.872Z,44.77
2018-05-15T17:22:17.244Z,44.38
2018-05-15T17:24:43.575Z,44.49
2018-05-15T17:27:09.916Z,45.08
2018-05-15T17:29:37.013Z,44.35
2018-05-15T17:32:03.650Z,44.38
2018-05-15T17:34:30.040Z,44.19
2018-05-15T17:36:56.366Z,44.87
2018-05-15T17:39:22.747Z,44.77
2018-05-15T17:41:49.115Z,44.43
2018-05-15T17:44:15.445Z,44.32
2018-05-15T17:46:41.813Z,44.18
2018-05-15T17:49:08.170Z,44.24
2018-05-15T17:51:34.556Z,44.26
2018-05-15T17:54:01.021Z,44.68
2018-05-15T17:56:27.339Z,44.45
2018-05-15T17:58:53.720Z,44.29
2018-05-15T18:01:20.071Z,44.32
2018-05-15T18:03:46.504Z,44.22
2018-05-15T18:06:12.862Z,44.19
2018-05-15T18:08:39.241Z,44.23
2018-05-15T18:11:05.588Z,44.23
2018-05-15T18:13:31.970Z,44.32
2018-05-15T18:15:58.328Z,44.41
2018-05-15T18:18:24.744Z,44.45
2018-05-15T18:20:51.104Z,44.54
2018-05-15T18:23:17.490Z,44.73
2018-05-15T18:25:43.879Z,44.63
2018-05-15T18:28:10.268Z,44.73
2018-05-15T18:30:36.662Z,44.67
2018-05-15T18:33:03.111Z,44.60
2018-05-15T18:35:29.337Z,44.52
2018-05-15T18:37:55.704Z,44.56
2018-05-15T18:40:22.040Z,44.62
2018-05-15T18:42:48.595Z,44.74
2018-05-15T18:45:15.008Z,44.68
2018-05-15T18:47:41.339Z,44.70
2018-05-15T18:50:07.839Z,44.66
2018-05-15T18:52:34.201Z,44.78
2018-05-15T18:55:00.537Z,44.83
2018-05-15T18:57:26.864Z,44.99
2018-05-15T18:59:53.219Z,44.90
2018-05-15T19:02:19.653Z,44.99
2018-05-15T19:04:45.990Z,45.11
2018-05-15T19:07:12.360Z,45.22
2018-05-15T19:09:38.721Z,45.20
2018-05-15T19:12:05.105Z,45.31
2018-05-15T19:14:31.444Z,45.38
2018-05-15T19:16:57.789Z,45.32
2018-05-15T19:19:24.168Z,45.35
2018-05-15T19:21:50.448Z,45.37
2018-05-15T19:24:16.899Z,45.47
2018-05-15T19:26:43.321Z,45.56
2018-05-15T19:29:09.707Z,45.64
2018-05-15T19:31:36.107Z,45.64
2018-05-15T19:34:02.449Z,45.76
2018-05-15T19:36:28.781Z,45.95
2018-05-15T19:38:55.165Z,45.99
2018-05-15T19:41:21.532Z,46.11
2018-05-15T19:43:47.926Z,46.21
2018-05-15T19:46:14.265Z,46.35
2018-05-15T19:48:40.611Z,46.41
2018-05-15T19:51:06.958Z,46.47
2018-05-15T19:53:33.359Z,46.57
2018-05-15T19:55:59.684Z,46.61
2018-05-15T19:58:26.045Z,46.67
2018-05-15T20:00:52.414Z,46.77
2018-05-15T20:03:18.842Z,46.83
2018-05-15T20:05:45.205Z,46.91
2018-05-15T20:08:11.517Z,46.93
2018-05-15T20:10:37.888Z,47.05
2018-05-15T20:13:04.205Z,47.02
2018-05-15T20:15:30.560Z,47.05
2018-05-15T20:17:56.878Z,47.11
2018-05-15T20:20:23.204Z,47.17
2018-05-15T20:22:49.538Z,47.25
2018-05-15T20:25:15.873Z,47.40
2018-05-15T20:27:42.267Z,47.39
2018-05-15T20:30:08.592Z,47.50
2018-05-15T20:32:34.914Z,47.54
2018-05-15T20:35:01.412Z,47.53
2018-05-15T20:37:27.620Z,47.63
2018-05-15T20:39:53.985Z,47.68
2018-05-15T20:42:20.301Z,47.72
2018-05-15T20:44:46.624Z,47.76
2018-05-15T20:47:12.980Z,47.79
2018-05-15T20:49:39.295Z,47.81
2018-05-15T20:52:05.721Z,47.89
2018-05-15T20:54:32.056Z,47.97
2018-05-15T20:56:58.378Z,48.06
2018-05-15T20:59:24.699Z,48.14
2018-05-15T21:01:51.126Z,48.14
2018-05-15T21:04:17.441Z,48.12
2018-05-15T21:06:43.760Z,48.26
2018-05-15T21:09:11.112Z,48.35
2018-05-15T21:11:37.432Z,48.49
2018-05-15T21:14:03.772Z,48.50
2018-05-15T21:16:30.103Z,48.53
2018-05-15T21:18:56.466Z,48.53
2018-05-15T21:21:22.788Z,48.61
2018-05-15T21:23:49.114Z,48.64
2018-05-15T21:26:15.460Z,48.65
2018-05-15T21:28:41.814Z,48.79
2018-05-15T21:31:08.176Z,48.82
2018-05-15T21:33:34.552Z,48.86
2018-05-15T21:36:00.878Z,48.95
2018-05-15T21:38:27.199Z,49.01
2018-05-15T21:40:53.583Z,49.08
2018-05-15T21:43:19.976Z,49.07
2018-05-15T21:45:46.344Z,49.27
2018-05-15T21:48:12.664Z,49.24
2018-05-15T21:50:38.987Z,49.31
2018-05-15T21:53:05.351Z,49.42
2018-05-15T21:55:31.671Z,49.52
2018-05-15T21:57:57.984Z,49.60
2018-05-15T22:00:24.352Z,49.74
2018-05-15T22:02:50.673Z,49.73
2018-05-15T22:05:16.996Z,49.85
2018-05-15T22:07:43.309Z,49.83
2018-05-15T22:10:09.661Z,49.98
2018-05-15T22:12:36.008Z,49.94
2018-05-15T22:15:02.348Z,50.18
2018-05-15T22:17:28.723Z,50.16
2018-05-15T22:19:55.099Z,50.08
2018-05-15T22:22:21.484Z,50.16
2018-05-15T22:24:47.821Z,50.24
2018-05-15T22:27:14.140Z,50.27
2018-05-15T22:29:40.463Z,50.39
2018-05-15T22:32:06.803Z,50.41
2018-05-15T22:34:33.153Z,50.50
2018-05-15T22:36:59.527Z,50.48
2018-05-15T22:39:25.925Z,50.49
2018-05-15T22:41:52.246Z,50.65
2018-05-15T22:44:18.599Z,50.46
2018-05-15T22:46:44.920Z,50.63
2018-05-15T22:49:11.273Z,50.64
2018-05-15T22:51:37.646Z,50.70
2018-05-15T22:54:03.966Z,50.66
2018-05-15T22:56:30.321Z,50.89
2018-05-15T22:58:56.642Z,50.82
2018-05-15T23:01:22.956Z,50.85
2018-05-15T23:03:49.285Z,50.90
2018-05-15T23:06:15.608Z,50.89
2018-05-15T23:08:41.943Z,50.85
2018-05-15T23:11:08.262Z,50.97
2018-05-15T23:13:34.611Z,50.98
2018-05-15T23:16:00.931Z,51.01
2018-05-15T23:18:27.256Z,51.00
2018-05-15T23:20:53.573Z,50.98
2018-05-15T23:23:19.892Z,50.99
2018-05-15T23:25:46.219Z,51.00
2018-05-15T23:28:12.560Z,51.13
2018-05-15T23:30:38.922Z,51.14
2018-05-15T23:33:05.250Z,51.17
2018-05-15T23:38:04.085Z,51.27
2018-05-15T23:40:30.450Z,51.22
2018-05-15T23:42:56.777Z,51.23
2018-05-15T23:45:23.104Z,51.17
2018-05-15T23:47:49.429Z,51.33
2018-05-15T23:50:15.745Z,51.40
2018-05-15T23:52:42.088Z,51.44
2018-05-15T23:55:08.406Z,51.35
2018-05-15T23:57:34.729Z,51.34
